This is the latest recevied weather packets stored in our database for station/object KU4DD. If no packets are shown the sender has not sent any weather packets the latest 10 day(s).
| Time | Temp. | Humidity | Pressure | Rain* | Wind** | Luminosity | Snow |
|---|---|---|---|---|---|---|---|
| 1788390410 | 34.44° C | 59% | 1016.3 hPa | 0 mm | - | 37 W/m² | - |
| 1788389786 | 34.44° C | 57% | 1015.9 hPa | 0 mm | - | 42 W/m² | - |
| 1788388542 | 35° C | 56% | 1015.9 hPa | 0 mm | - | 35 W/m² | - |
| 1788387923 | 35.56° C | 53% | 1015.6 hPa | 0 mm | - | 35 W/m² | - |
| 1788386690 | 37.22° C | 44% | 1015.6 hPa | 0 mm | - | 56 W/m² | - |
| 1788382679 | 37.22° C | 45% | 1015.9 hPa | 0 mm | - | 439 W/m² | - |
| 1788380211 | 37.22° C | 47% | 1016.3 hPa | 0 mm | - | 629 W/m² | - |
| 1788378960 | 37.78° C | 46% | 1016.6 hPa | 0 mm | - | 701 W/m² | - |
| 1788376793 | 37.22° C | 46% | 1016.6 hPa | 0 mm | - | 795 W/m² | - |
| 1788374027 | 36.67° C | 51% | 1016.9 hPa | 0 mm | - | 877 W/m² | - |
| 1788373706 | 36.11° C | 49% | 1016.9 hPa | 0 mm | - | 881 W/m² | - |
| 1788372768 | 36.11° C | 51% | 1016.9 hPa | 0 mm | - | 914 W/m² | - |
| 1788372145 | 35.56° C | 51% | 1017.3 hPa | 0 mm | - | 132 W/m² | - |
| 1788369367 | 36.11° C | 53% | 1017.6 hPa | 0 mm | - | 877 W/m² | - |
| 1788366886 | 35° C | 56% | 1017.9 hPa | 0 mm | - | 594 W/m² | - |
| 1788365958 | 35° C | 56% | 1018.3 hPa | 0 mm | - | 90 W/m² | - |
| 1788363803 | 33.89° C | 62% | 1018.3 hPa | 0 mm | - | 779 W/m² | - |
| 1788363491 | 33.89° C | 65% | 1018.3 hPa | 0 mm | - | 775 W/m² | - |
| 1788361946 | 32.78° C | 66% | 1018.3 hPa | 0 mm | - | 726 W/m² | - |
| 1788361321 | 32.78° C | 67% | 1018.3 hPa | 0 mm | - | 701 W/m² | - |
| 1788360389 | 32.22° C | 71% | 1018.3 hPa | 0 mm | - | 666 W/m² | - |
| 1788360078 | 31.67° C | 71% | 1017.9 hPa | 0 mm | - | 656 W/m² | - |
| 1788359147 | 31.11° C | 73% | 1017.9 hPa | 0 mm | - | 617 W/m² | - |
| 1788357905 | 30° C | 78% | 1017.9 hPa | 0 mm | - | 561 W/m² | - |
| 1788357588 | 30° C | 78% | 1017.6 hPa | 0 mm | - | 547 W/m² | - |
* Rain latest hour (hover to see other rain measurements)
** Current wind speed in m/s (hover to see current wind gust speed)